Main page
METAR-TAF:

METAR-TAF

Airports :

Dease Lake Airport

Dease Lake, British Columbia, Canada

latitude: 58-25-20N, longitude: 130-01-53W, elevation: 2634 ft

Current weather observation

The report was made 16 minutes ago, at 20:00 UTC
Wind 5 mph from the South, varying between Southeast and West/Southwest
Temperature 68°F
Humidity 37%
Pressure 29.99 in. Hg
Visibility: 9 miles
Clear sky

METAR: CYDL 192000Z AUTO 17004KT 130V250 9SM CLR 20/05 A2999 RMK SLP156 DENSITY ALT 3800FT

Time: 13:16 (20:16 UTC)

Forecast

The report was made 2 hours and 36 minutes ago, at 17:40 UTC
Forecast valid from 19 at 18 UTC to 19 at 23 UTC
Wind 6 mph from the Southwest
Visibility: 6 miles
Few clouds at a height of 24000 ft

TAF: CYDL 191740Z 1918/1923 22005KT P6SM FEW240 RMK FCST BASED ON AUTO OBS. NXT FCST BY 201200Z

Weather observations and forecasts of more than 4000 airports (METAR and TAF reports).

The available stations are represented by yellow and red dots on the map.

Hover mouse over dot to see the name of the station.

Then click to see weather observations and forecasts.

To change the map : click on the green buttons with a black cross to zoom in, on the green button with a dash to zoom out, or on the green arrows for adjacent maps.


METAR-TAF: